sensor_id;sensor_type;location;lat;lon;timestamp;temperature;humidity
28747;DHT22;15903;49.008;8.394;2023-03-19T00:01:51;13.50;91.00
28747;DHT22;15903;49.008;8.394;2023-03-19T00:04:17;13.40;91.30
28747;DHT22;15903;49.008;8.394;2023-03-19T00:06:42;13.40;91.60
28747;DHT22;15903;49.008;8.394;2023-03-19T00:09:08;13.20;92.30
28747;DHT22;15903;49.008;8.394;2023-03-19T00:11:34;13.30;92.60
28747;DHT22;15903;49.008;8.394;2023-03-19T00:14:00;13.30;93.10
28747;DHT22;15903;49.008;8.394;2023-03-19T00:16:26;13.30;93.50
28747;DHT22;15903;49.008;8.394;2023-03-19T00:18:51;13.40;94.00
28747;DHT22;15903;49.008;8.394;2023-03-19T00:21:18;13.40;93.30
28747;DHT22;15903;49.008;8.394;2023-03-19T00:23:43;13.30;93.80
28747;DHT22;15903;49.008;8.394;2023-03-19T00:26:09;13.20;94.40
28747;DHT22;15903;49.008;8.394;2023-03-19T00:28:36;13.20;94.90
28747;DHT22;15903;49.008;8.394;2023-03-19T00:31:15;13.20;95.20
28747;DHT22;15903;49.008;8.394;2023-03-19T00:33:41;13.20;96.00
28747;DHT22;15903;49.008;8.394;2023-03-19T00:36:08;13.20;95.70
28747;DHT22;15903;49.008;8.394;2023-03-19T00:38:35;13.20;96.00
28747;DHT22;15903;49.008;8.394;2023-03-19T00:41:01;13.10;95.70
28747;DHT22;15903;49.008;8.394;2023-03-19T00:43:27;13.10;95.30
28747;DHT22;15903;49.008;8.394;2023-03-19T00:45:52;13.20;95.00
28747;DHT22;15903;49.008;8.394;2023-03-19T00:48:18;13.10;95.10
28747;DHT22;15903;49.008;8.394;2023-03-19T00:50:44;13.00;96.00
28747;DHT22;15903;49.008;8.394;2023-03-19T00:53:10;13.00;97.10
28747;DHT22;15903;49.008;8.394;2023-03-19T00:55:35;13.10;97.90
28747;DHT22;15903;49.008;8.394;2023-03-19T00:58:01;13.10;98.80
28747;DHT22;15903;49.008;8.394;2023-03-19T01:00:27;13.00;99.60
28747;DHT22;15903;49.008;8.394;2023-03-19T01:02:53;13.00;99.90
28747;DHT22;15903;49.008;8.394;2023-03-19T01:05:18;13.00;99.90
28747;DHT22;15903;49.008;8.394;2023-03-19T01:07:44;13.00;99.90
28747;DHT22;15903;49.008;8.394;2023-03-19T01:10:10;12.90;99.00
28747;DHT22;15903;49.008;8.394;2023-03-19T01:12:36;12.90;98.40
28747;DHT22;15903;49.008;8.394;2023-03-19T01:15:03;13.00;98.40
28747;DHT22;15903;49.008;8.394;2023-03-19T01:17:29;13.00;98.40
28747;DHT22;15903;49.008;8.394;2023-03-19T01:19:55;13.00;98.10
28747;DHT22;15903;49.008;8.394;2023-03-19T01:22:21;12.90;98.20
28747;DHT22;15903;49.008;8.394;2023-03-19T01:24:47;12.90;98.80
28747;DHT22;15903;49.008;8.394;2023-03-19T01:27:12;12.90;99.20
28747;DHT22;15903;49.008;8.394;2023-03-19T01:29:38;13.00;98.60
28747;DHT22;15903;49.008;8.394;2023-03-19T01:32:04;12.90;99.30
28747;DHT22;15903;49.008;8.394;2023-03-19T01:34:30;12.90;98.80
28747;DHT22;15903;49.008;8.394;2023-03-19T01:36:55;12.90;98.40
28747;DHT22;15903;49.008;8.394;2023-03-19T01:39:21;12.90;98.80
28747;DHT22;15903;49.008;8.394;2023-03-19T01:41:47;12.90;98.40
28747;DHT22;15903;49.008;8.394;2023-03-19T01:44:26;12.90;98.10
28747;DHT22;15903;49.008;8.394;2023-03-19T01:46:52;12.90;98.40
28747;DHT22;15903;49.008;8.394;2023-03-19T01:49:18;12.90;98.60
28747;DHT22;15903;49.008;8.394;2023-03-19T01:51:46;12.80;98.40
28747;DHT22;15903;49.008;8.394;2023-03-19T01:54:18;12.80;98.50
28747;DHT22;15903;49.008;8.394;2023-03-19T01:56:46;12.80;98.60
28747;DHT22;15903;49.008;8.394;2023-03-19T01:59:24;12.80;98.50
28747;DHT22;15903;49.008;8.394;2023-03-19T02:01:55;12.70;98.60
28747;DHT22;15903;49.008;8.394;2023-03-19T02:04:22;12.70;98.50
28747;DHT22;15903;49.008;8.394;2023-03-19T02:06:48;12.70;98.40
28747;DHT22;15903;49.008;8.394;2023-03-19T02:09:14;12.70;98.90
28747;DHT22;15903;49.008;8.394;2023-03-19T02:11:42;12.70;98.40
28747;DHT22;15903;49.008;8.394;2023-03-19T02:14:08;12.70;98.60
28747;DHT22;15903;49.008;8.394;2023-03-19T02:16:34;12.70;98.60
28747;DHT22;15903;49.008;8.394;2023-03-19T02:19:00;12.70;98.60
28747;DHT22;15903;49.008;8.394;2023-03-19T02:21:25;12.70;98.70
28747;DHT22;15903;49.008;8.394;2023-03-19T02:24:15;12.70;98.80
28747;DHT22;15903;49.008;8.394;2023-03-19T02:26:43;12.70;99.90
28747;DHT22;15903;49.008;8.394;2023-03-19T02:29:09;12.70;99.90
28747;DHT22;15903;49.008;8.394;2023-03-19T02:31:35;12.80;99.90
28747;DHT22;15903;49.008;8.394;2023-03-19T02:34:14;12.80;99.90
28747;DHT22;15903;49.008;8.394;2023-03-19T02:36:54;12.80;99.90
28747;DHT22;15903;49.008;8.394;2023-03-19T02:39:35;12.80;99.90
28747;DHT22;15903;49.008;8.394;2023-03-19T02:42:04;12.80;99.90
28747;DHT22;15903;49.008;8.394;2023-03-19T02:44:30;12.80;99.90
28747;DHT22;15903;49.008;8.394;2023-03-19T02:46:56;12.80;99.90
28747;DHT22;15903;49.008;8.394;2023-03-19T02:49:22;12.70;99.90
28747;DHT22;15903;49.008;8.394;2023-03-19T02:51:48;12.80;99.90
28747;DHT22;15903;49.008;8.394;2023-03-19T02:54:13;12.80;99.90
28747;DHT22;15903;49.008;8.394;2023-03-19T02:56:39;12.70;99.90
28747;DHT22;15903;49.008;8.394;2023-03-19T02:59:04;12.70;99.90
28747;DHT22;15903;49.008;8.394;2023-03-19T03:01:31;12.70;99.90
28747;DHT22;15903;49.008;8.394;2023-03-19T03:03:56;12.70;99.90
28747;DHT22;15903;49.008;8.394;2023-03-19T03:06:22;12.70;99.90
28747;DHT22;15903;49.008;8.394;2023-03-19T03:08:47;12.60;99.90
28747;DHT22;15903;49.008;8.394;2023-03-19T03:11:13;12.70;99.90
28747;DHT22;15903;49.008;8.394;2023-03-19T03:13:38;12.70;99.90
28747;DHT22;15903;49.008;8.394;2023-03-19T03:16:04;12.70;99.90
28747;DHT22;15903;49.008;8.394;2023-03-19T03:18:30;12.70;99.90
28747;DHT22;15903;49.008;8.394;2023-03-19T03:20:56;12.60;99.90
28747;DHT22;15903;49.008;8.394;2023-03-19T03:23:21;12.60;99.90
28747;DHT22;15903;49.008;8.394;2023-03-19T03:25:50;12.70;99.90
28747;DHT22;15903;49.008;8.394;2023-03-19T03:28:17;12.70;99.90
28747;DHT22;15903;49.008;8.394;2023-03-19T03:30:43;12.70;99.90
28747;DHT22;15903;49.008;8.394;2023-03-19T03:33:09;12.70;99.90
28747;DHT22;15903;49.008;8.394;2023-03-19T03:35:35;12.70;99.90
28747;DHT22;15903;49.008;8.394;2023-03-19T03:38:00;12.70;99.90
28747;DHT22;15903;49.008;8.394;2023-03-19T03:40:27;12.60;99.90
28747;DHT22;15903;49.008;8.394;2023-03-19T03:42:53;12.60;99.90
28747;DHT22;15903;49.008;8.394;2023-03-19T03:45:18;12.60;99.90
28747;DHT22;15903;49.008;8.394;2023-03-19T03:47:44;12.60;99.90
28747;DHT22;15903;49.008;8.394;2023-03-19T03:50:10;12.50;99.90
28747;DHT22;15903;49.008;8.394;2023-03-19T03:52:36;12.60;99.90
28747;DHT22;15903;49.008;8.394;2023-03-19T03:55:02;12.60;99.90
28747;DHT22;15903;49.008;8.394;2023-03-19T03:57:28;12.50;99.90
28747;DHT22;15903;49.008;8.394;2023-03-19T03:59:54;12.50;99.90
28747;DHT22;15903;49.008;8.394;2023-03-19T04:02:20;12.50;99.90
28747;DHT22;15903;49.008;8.394;2023-03-19T04:04:46;12.50;99.90
28747;DHT22;15903;49.008;8.394;2023-03-19T04:07:12;12.50;99.90
28747;DHT22;15903;49.008;8.394;2023-03-19T04:09:38;12.50;99.90
28747;DHT22;15903;49.008;8.394;2023-03-19T04:12:04;12.50;99.90
28747;DHT22;15903;49.008;8.394;2023-03-19T04:14:30;12.50;99.90
28747;DHT22;15903;49.008;8.394;2023-03-19T04:16:56;12.50;99.90
28747;DHT22;15903;49.008;8.394;2023-03-19T04:19:21;12.50;99.90
28747;DHT22;15903;49.008;8.394;2023-03-19T04:21:47;12.50;99.90
28747;DHT22;15903;49.008;8.394;2023-03-19T04:24:12;12.50;99.90
28747;DHT22;15903;49.008;8.394;2023-03-19T04:26:39;12.50;99.90
28747;DHT22;15903;49.008;8.394;2023-03-19T04:29:06;12.50;99.90
28747;DHT22;15903;49.008;8.394;2023-03-19T04:31:33;12.50;99.90
28747;DHT22;15903;49.008;8.394;2023-03-19T04:33:58;12.50;99.90
28747;DHT22;15903;49.008;8.394;2023-03-19T04:36:24;12.50;99.90
28747;DHT22;15903;49.008;8.394;2023-03-19T04:38:50;12.50;99.90
28747;DHT22;15903;49.008;8.394;2023-03-19T04:41:15;12.60;99.90
28747;DHT22;15903;49.008;8.394;2023-03-19T04:43:41;12.60;99.90
28747;DHT22;15903;49.008;8.394;2023-03-19T04:46:07;12.60;99.90
28747;DHT22;15903;49.008;8.394;2023-03-19T04:48:33;12.60;99.90
28747;DHT22;15903;49.008;8.394;2023-03-19T04:51:01;12.60;99.90
28747;DHT22;15903;49.008;8.394;2023-03-19T04:53:27;12.60;99.90
28747;DHT22;15903;49.008;8.394;2023-03-19T04:55:53;12.60;99.90
28747;DHT22;15903;49.008;8.394;2023-03-19T04:58:19;12.60;99.90
28747;DHT22;15903;49.008;8.394;2023-03-19T05:00:45;12.60;99.90
28747;DHT22;15903;49.008;8.394;2023-03-19T05:03:12;12.60;99.90
28747;DHT22;15903;49.008;8.394;2023-03-19T05:05:38;12.60;99.90
28747;DHT22;15903;49.008;8.394;2023-03-19T05:08:04;12.60;99.90
28747;DHT22;15903;49.008;8.394;2023-03-19T05:10:29;12.60;99.90
28747;DHT22;15903;49.008;8.394;2023-03-19T05:12:56;12.60;99.90
28747;DHT22;15903;49.008;8.394;2023-03-19T05:15:22;12.60;99.90
28747;DHT22;15903;49.008;8.394;2023-03-19T05:17:47;12.70;99.90
28747;DHT22;15903;49.008;8.394;2023-03-19T05:20:13;12.70;99.90
28747;DHT22;15903;49.008;8.394;2023-03-19T05:22:39;12.60;99.90
28747;DHT22;15903;49.008;8.394;2023-03-19T05:25:05;12.50;99.90
28747;DHT22;15903;49.008;8.394;2023-03-19T05:27:31;12.40;99.90
28747;DHT22;15903;49.008;8.394;2023-03-19T05:29:57;12.50;99.90
28747;DHT22;15903;49.008;8.394;2023-03-19T05:32:22;12.50;99.90
28747;DHT22;15903;49.008;8.394;2023-03-19T05:34:49;12.50;99.90
28747;DHT22;15903;49.008;8.394;2023-03-19T05:37:15;12.40;99.90
28747;DHT22;15903;49.008;8.394;2023-03-19T05:39:41;12.40;99.90
28747;DHT22;15903;49.008;8.394;2023-03-19T05:42:07;12.40;99.90
28747;DHT22;15903;49.008;8.394;2023-03-19T05:44:32;12.40;99.90
28747;DHT22;15903;49.008;8.394;2023-03-19T05:46:58;12.40;99.90
28747;DHT22;15903;49.008;8.394;2023-03-19T05:49:23;12.50;99.90
28747;DHT22;15903;49.008;8.394;2023-03-19T05:51:49;12.50;99.90
28747;DHT22;15903;49.008;8.394;2023-03-19T05:54:15;12.60;99.90
28747;DHT22;15903;49.008;8.394;2023-03-19T05:56:40;12.50;99.90
28747;DHT22;15903;49.008;8.394;2023-03-19T05:59:06;12.50;99.90
28747;DHT22;15903;49.008;8.394;2023-03-19T06:01:32;12.40;99.90
28747;DHT22;15903;49.008;8.394;2023-03-19T06:03:58;12.50;99.90
28747;DHT22;15903;49.008;8.394;2023-03-19T06:06:23;12.50;99.90
28747;DHT22;15903;49.008;8.394;2023-03-19T06:08:49;12.50;99.90
28747;DHT22;15903;49.008;8.394;2023-03-19T06:11:15;12.50;99.90
28747;DHT22;15903;49.008;8.394;2023-03-19T06:13:41;12.50;99.90
28747;DHT22;15903;49.008;8.394;2023-03-19T06:16:08;12.50;99.90
28747;DHT22;15903;49.008;8.394;2023-03-19T06:18:33;12.50;99.90
28747;DHT22;15903;49.008;8.394;2023-03-19T06:20:59;12.50;99.90
28747;DHT22;15903;49.008;8.394;2023-03-19T06:23:25;12.50;99.90
28747;DHT22;15903;49.008;8.394;2023-03-19T06:25:50;12.50;99.90
28747;DHT22;15903;49.008;8.394;2023-03-19T06:28:16;12.60;99.90
28747;DHT22;15903;49.008;8.394;2023-03-19T06:30:42;12.70;99.90
28747;DHT22;15903;49.008;8.394;2023-03-19T06:33:07;12.60;99.90
28747;DHT22;15903;49.008;8.394;2023-03-19T06:35:33;12.60;99.90
28747;DHT22;15903;49.008;8.394;2023-03-19T06:37:59;12.60;99.90
28747;DHT22;15903;49.008;8.394;2023-03-19T06:40:25;12.60;99.90
28747;DHT22;15903;49.008;8.394;2023-03-19T06:42:50;12.60;99.90
28747;DHT22;15903;49.008;8.394;2023-03-19T06:45:16;12.60;99.90
28747;DHT22;15903;49.008;8.394;2023-03-19T06:47:44;12.70;99.90
28747;DHT22;15903;49.008;8.394;2023-03-19T06:50:12;12.70;99.90
28747;DHT22;15903;49.008;8.394;2023-03-19T06:52:39;12.80;99.90
28747;DHT22;15903;49.008;8.394;2023-03-19T06:55:05;12.80;99.90
28747;DHT22;15903;49.008;8.394;2023-03-19T06:57:32;12.80;99.90
28747;DHT22;15903;49.008;8.394;2023-03-19T06:59:58;12.80;99.90
28747;DHT22;15903;49.008;8.394;2023-03-19T07:02:23;12.80;99.90
28747;DHT22;15903;49.008;8.394;2023-03-19T07:04:49;12.90;99.90
28747;DHT22;15903;49.008;8.394;2023-03-19T07:07:15;12.90;99.90
28747;DHT22;15903;49.008;8.394;2023-03-19T07:09:40;12.90;99.90
28747;DHT22;15903;49.008;8.394;2023-03-19T07:12:06;12.90;99.90
28747;DHT22;15903;49.008;8.394;2023-03-19T07:14:32;12.90;99.90
28747;DHT22;15903;49.008;8.394;2023-03-19T07:16:57;12.90;99.90
28747;DHT22;15903;49.008;8.394;2023-03-19T07:19:23;12.90;99.90
28747;DHT22;15903;49.008;8.394;2023-03-19T07:21:49;12.90;99.90
28747;DHT22;15903;49.008;8.394;2023-03-19T07:24:14;13.00;99.90
28747;DHT22;15903;49.008;8.394;2023-03-19T07:26:40;13.00;99.90
28747;DHT22;15903;49.008;8.394;2023-03-19T07:29:06;13.00;99.90
28747;DHT22;15903;49.008;8.394;2023-03-19T07:31:32;13.10;99.90
28747;DHT22;15903;49.008;8.394;2023-03-19T07:33:57;13.10;99.90
28747;DHT22;15903;49.008;8.394;2023-03-19T07:36:23;13.20;99.90
28747;DHT22;15903;49.008;8.394;2023-03-19T07:38:49;13.20;99.90
28747;DHT22;15903;49.008;8.394;2023-03-19T07:41:14;13.30;99.90
28747;DHT22;15903;49.008;8.394;2023-03-19T07:43:40;13.40;99.90
28747;DHT22;15903;49.008;8.394;2023-03-19T07:46:05;13.40;99.90
28747;DHT22;15903;49.008;8.394;2023-03-19T07:48:32;13.50;99.90
28747;DHT22;15903;49.008;8.394;2023-03-19T07:50:57;13.60;99.90
28747;DHT22;15903;49.008;8.394;2023-03-19T07:53:23;13.60;99.90
28747;DHT22;15903;49.008;8.394;2023-03-19T07:55:48;13.60;99.90
28747;DHT22;15903;49.008;8.394;2023-03-19T07:58:15;13.70;99.90
28747;DHT22;15903;49.008;8.394;2023-03-19T08:00:41;13.70;99.90
28747;DHT22;15903;49.008;8.394;2023-03-19T08:03:07;13.80;99.90
28747;DHT22;15903;49.008;8.394;2023-03-19T08:05:32;13.80;99.90
28747;DHT22;15903;49.008;8.394;2023-03-19T08:07:58;13.80;99.90
28747;DHT22;15903;49.008;8.394;2023-03-19T08:10:23;13.90;99.90
28747;DHT22;15903;49.008;8.394;2023-03-19T08:12:49;13.90;99.90
28747;DHT22;15903;49.008;8.394;2023-03-19T08:15:14;14.00;99.90
28747;DHT22;15903;49.008;8.394;2023-03-19T08:17:40;14.00;99.90
28747;DHT22;15903;49.008;8.394;2023-03-19T08:20:08;14.10;99.90
28747;DHT22;15903;49.008;8.394;2023-03-19T08:22:35;14.20;99.90
28747;DHT22;15903;49.008;8.394;2023-03-19T08:25:02;14.30;99.90
28747;DHT22;15903;49.008;8.394;2023-03-19T08:27:28;14.40;99.90
28747;DHT22;15903;49.008;8.394;2023-03-19T08:29:56;14.50;99.50
28747;DHT22;15903;49.008;8.394;2023-03-19T08:32:21;14.50;99.90
28747;DHT22;15903;49.008;8.394;2023-03-19T08:34:47;14.50;99.30
28747;DHT22;15903;49.008;8.394;2023-03-19T08:37:13;14.60;99.50
28747;DHT22;15903;49.008;8.394;2023-03-19T08:39:39;14.70;98.60
28747;DHT22;15903;49.008;8.394;2023-03-19T08:42:04;14.80;98.10
28747;DHT22;15903;49.008;8.394;2023-03-19T08:44:30;14.90;98.10
28747;DHT22;15903;49.008;8.394;2023-03-19T08:46:56;15.00;98.60
28747;DHT22;15903;49.008;8.394;2023-03-19T08:49:21;15.10;98.20
28747;DHT22;15903;49.008;8.394;2023-03-19T08:51:47;15.20;98.20
28747;DHT22;15903;49.008;8.394;2023-03-19T08:54:12;15.30;97.40
28747;DHT22;15903;49.008;8.394;2023-03-19T08:56:38;15.30;96.80
28747;DHT22;15903;49.008;8.394;2023-03-19T08:59:05;15.30;96.00
28747;DHT22;15903;49.008;8.394;2023-03-19T09:01:31;15.20;95.30
28747;DHT22;15903;49.008;8.394;2023-03-19T09:03:56;15.20;95.10
28747;DHT22;15903;49.008;8.394;2023-03-19T09:06:22;15.40;95.70
28747;DHT22;15903;49.008;8.394;2023-03-19T09:08:47;15.50;95.10
28747;DHT22;15903;49.008;8.394;2023-03-19T09:11:13;15.40;94.60
28747;DHT22;15903;49.008;8.394;2023-03-19T09:13:41;15.40;94.60
28747;DHT22;15903;49.008;8.394;2023-03-19T09:16:06;15.40;94.60
28747;DHT22;15903;49.008;8.394;2023-03-19T09:18:32;15.60;94.80
28747;DHT22;15903;49.008;8.394;2023-03-19T09:20:58;15.80;95.00
28747;DHT22;15903;49.008;8.394;2023-03-19T09:23:28;16.00;94.60
28747;DHT22;15903;49.008;8.394;2023-03-19T09:25:54;16.20;94.10
28747;DHT22;15903;49.008;8.394;2023-03-19T09:28:19;16.20;93.40
28747;DHT22;15903;49.008;8.394;2023-03-19T09:30:46;16.30;93.10
28747;DHT22;15903;49.008;8.394;2023-03-19T09:33:12;16.30;92.20
28747;DHT22;15903;49.008;8.394;2023-03-19T09:35:38;16.30;92.10
28747;DHT22;15903;49.008;8.394;2023-03-19T09:38:04;16.30;91.90
28747;DHT22;15903;49.008;8.394;2023-03-19T09:40:40;16.30;91.90
28747;DHT22;15903;49.008;8.394;2023-03-19T09:43:18;16.30;91.70
28747;DHT22;15903;49.008;8.394;2023-03-19T09:45:49;16.30;91.80
28747;DHT22;15903;49.008;8.394;2023-03-19T09:48:46;16.50;91.00
28747;DHT22;15903;49.008;8.394;2023-03-19T09:51:19;16.60;90.20
28747;DHT22;15903;49.008;8.394;2023-03-19T09:54:26;16.60;90.80
28747;DHT22;15903;49.008;8.394;2023-03-19T09:56:52;16.60;90.50
28747;DHT22;15903;49.008;8.394;2023-03-19T09:59:20;16.50;90.00
28747;DHT22;15903;49.008;8.394;2023-03-19T10:01:54;16.50;90.50
28747;DHT22;15903;49.008;8.394;2023-03-19T10:06:48;16.50;90.00
28747;DHT22;15903;49.008;8.394;2023-03-19T10:10:27;16.60;90.10
28747;DHT22;15903;49.008;8.394;2023-03-19T10:18:06;16.80;89.80
28747;DHT22;15903;49.008;8.394;2023-03-19T10:23:30;16.90;88.90
28747;DHT22;15903;49.008;8.394;2023-03-19T10:25:59;16.80;84.50
28747;DHT22;15903;49.008;8.394;2023-03-19T10:28:28;16.60;85.30
28747;DHT22;15903;49.008;8.394;2023-03-19T10:33:24;16.60;86.10
28747;DHT22;15903;49.008;8.394;2023-03-19T10:36:03;16.80;85.90
28747;DHT22;15903;49.008;8.394;2023-03-19T10:38:30;17.00;84.60
28747;DHT22;15903;49.008;8.394;2023-03-19T10:44:15;17.20;84.70
28747;DHT22;15903;49.008;8.394;2023-03-19T10:46:44;17.30;84.00
28747;DHT22;15903;49.008;8.394;2023-03-19T10:49:13;17.30;83.30
28747;DHT22;15903;49.008;8.394;2023-03-19T10:51:43;17.40;83.00
28747;DHT22;15903;49.008;8.394;2023-03-19T10:54:21;17.30;80.30
28747;DHT22;15903;49.008;8.394;2023-03-19T10:56:48;17.20;80.40
28747;DHT22;15903;49.008;8.394;2023-03-19T11:02:01;17.40;78.80
28747;DHT22;15903;49.008;8.394;2023-03-19T11:04:28;17.60;79.40
28747;DHT22;15903;49.008;8.394;2023-03-19T11:07:12;17.80;78.70
28747;DHT22;15903;49.008;8.394;2023-03-19T11:09:45;17.90;78.10
28747;DHT22;15903;49.008;8.394;2023-03-19T11:14:51;18.10;76.50
28747;DHT22;15903;49.008;8.394;2023-03-19T11:17:34;18.10;76.20
28747;DHT22;15903;49.008;8.394;2023-03-19T11:22:40;18.10;75.50
28747;DHT22;15903;49.008;8.394;2023-03-19T11:25:29;18.10;76.80
28747;DHT22;15903;49.008;8.394;2023-03-19T11:30:36;17.90;78.10
28747;DHT22;15903;49.008;8.394;2023-03-19T11:33:40;17.80;78.10
28747;DHT22;15903;49.008;8.394;2023-03-19T11:36:12;17.80;79.70
28747;DHT22;15903;49.008;8.394;2023-03-19T11:39:02;17.90;80.70
28747;DHT22;15903;49.008;8.394;2023-03-19T11:53:22;17.90;80.00
28747;DHT22;15903;49.008;8.394;2023-03-19T12:01:32;17.90;80.90
28747;DHT22;15903;49.008;8.394;2023-03-19T12:03:57;17.80;79.10
28747;DHT22;15903;49.008;8.394;2023-03-19T12:06:39;17.90;80.70
28747;DHT22;15903;49.008;8.394;2023-03-19T12:09:11;17.90;81.40
28747;DHT22;15903;49.008;8.394;2023-03-19T12:14:53;17.80;80.30
28747;DHT22;15903;49.008;8.394;2023-03-19T12:20:33;17.80;81.50
28747;DHT22;15903;49.008;8.394;2023-03-19T12:25:57;17.70;82.20
28747;DHT22;15903;49.008;8.394;2023-03-19T12:31:12;17.80;81.60
28747;DHT22;15903;49.008;8.394;2023-03-19T12:36:33;18.00;81.00
28747;DHT22;15903;49.008;8.394;2023-03-19T12:39:11;18.10;81.50
28747;DHT22;15903;49.008;8.394;2023-03-19T12:41:42;18.20;81.60
28747;DHT22;15903;49.008;8.394;2023-03-19T12:49:21;18.10;82.10
28747;DHT22;15903;49.008;8.394;2023-03-19T12:51:56;18.00;80.90
28747;DHT22;15903;49.008;8.394;2023-03-19T12:54:29;18.00;81.20
28747;DHT22;15903;49.008;8.394;2023-03-19T12:57:03;18.00;81.00
28747;DHT22;15903;49.008;8.394;2023-03-19T13:05:00;17.90;82.40
28747;DHT22;15903;49.008;8.394;2023-03-19T13:10:23;17.80;81.80
28747;DHT22;15903;49.008;8.394;2023-03-19T13:12:51;17.70;83.10
28747;DHT22;15903;49.008;8.394;2023-03-19T13:17:51;17.70;84.90
28747;DHT22;15903;49.008;8.394;2023-03-19T13:20:38;17.80;85.60
28747;DHT22;15903;49.008;8.394;2023-03-19T13:23:11;17.70;85.90
28747;DHT22;15903;49.008;8.394;2023-03-19T13:25:41;17.60;87.10
28747;DHT22;15903;49.008;8.394;2023-03-19T13:28:15;17.50;88.60
28747;DHT22;15903;49.008;8.394;2023-03-19T13:31:04;17.50;90.00
28747;DHT22;15903;49.008;8.394;2023-03-19T13:33:32;17.40;90.50
28747;DHT22;15903;49.008;8.394;2023-03-19T13:36:04;17.40;90.10
28747;DHT22;15903;49.008;8.394;2023-03-19T13:38:38;17.30;90.50
28747;DHT22;15903;49.008;8.394;2023-03-19T13:41:05;17.30;90.70
28747;DHT22;15903;49.008;8.394;2023-03-19T13:43:51;17.40;90.70
28747;DHT22;15903;49.008;8.394;2023-03-19T13:53:51;17.60;89.70
28747;DHT22;15903;49.008;8.394;2023-03-19T13:56:17;17.60;90.00
28747;DHT22;15903;49.008;8.394;2023-03-19T13:58:49;17.60;90.00
28747;DHT22;15903;49.008;8.394;2023-03-19T14:03:59;17.50;90.00
28747;DHT22;15903;49.008;8.394;2023-03-19T14:06:42;17.60;90.00
28747;DHT22;15903;49.008;8.394;2023-03-19T14:09:38;17.60;90.40
28747;DHT22;15903;49.008;8.394;2023-03-19T14:17:25;17.80;89.80
28747;DHT22;15903;49.008;8.394;2023-03-19T14:19:53;17.90;89.90
28747;DHT22;15903;49.008;8.394;2023-03-19T14:22:40;18.00;89.00
28747;DHT22;15903;49.008;8.394;2023-03-19T14:25:19;18.10;88.70
28747;DHT22;15903;49.008;8.394;2023-03-19T14:28:08;18.10;88.00
28747;DHT22;15903;49.008;8.394;2023-03-19T14:30:38;18.00;89.40
28747;DHT22;15903;49.008;8.394;2023-03-19T14:33:07;17.80;89.80
28747;DHT22;15903;49.008;8.394;2023-03-19T14:35:41;17.80;90.50
28747;DHT22;15903;49.008;8.394;2023-03-19T14:38:14;17.80;90.50
28747;DHT22;15903;49.008;8.394;2023-03-19T14:40:44;17.60;91.80
28747;DHT22;15903;49.008;8.394;2023-03-19T14:43:51;17.40;93.10
28747;DHT22;15903;49.008;8.394;2023-03-19T14:49:28;17.10;93.50
28747;DHT22;15903;49.008;8.394;2023-03-19T14:52:29;17.10;93.30
28747;DHT22;15903;49.008;8.394;2023-03-19T14:55:08;17.20;93.40
28747;DHT22;15903;49.008;8.394;2023-03-19T14:57:35;17.40;93.10
28747;DHT22;15903;49.008;8.394;2023-03-19T15:00:02;17.60;92.90
28747;DHT22;15903;49.008;8.394;2023-03-19T15:02:40;17.70;92.80
28747;DHT22;15903;49.008;8.394;2023-03-19T15:05:29;17.70;92.50
28747;DHT22;15903;49.008;8.394;2023-03-19T15:07:57;17.80;92.10
28747;DHT22;15903;49.008;8.394;2023-03-19T15:10:27;17.90;91.60
28747;DHT22;15903;49.008;8.394;2023-03-19T15:15:54;18.00;91.50
28747;DHT22;15903;49.008;8.394;2023-03-19T15:18:23;18.00;91.50
28747;DHT22;15903;49.008;8.394;2023-03-19T15:20:51;17.90;91.80
28747;DHT22;15903;49.008;8.394;2023-03-19T15:23:20;18.10;91.50
28747;DHT22;15903;49.008;8.394;2023-03-19T15:25:51;18.30;90.80
28747;DHT22;15903;49.008;8.394;2023-03-19T15:28:18;18.40;90.50
28747;DHT22;15903;49.008;8.394;2023-03-19T15:30:44;18.50;90.30
28747;DHT22;15903;49.008;8.394;2023-03-19T15:33:21;18.40;90.30
28747;DHT22;15903;49.008;8.394;2023-03-19T15:35:56;18.30;90.00
28747;DHT22;15903;49.008;8.394;2023-03-19T15:38:25;18.10;90.40
28747;DHT22;15903;49.008;8.394;2023-03-19T15:40:51;18.00;90.80
28747;DHT22;15903;49.008;8.394;2023-03-19T15:43:17;17.90;91.10
28747;DHT22;15903;49.008;8.394;2023-03-19T15:45:48;17.80;91.20
28747;DHT22;15903;49.008;8.394;2023-03-19T15:48:22;17.70;91.50
28747;DHT22;15903;49.008;8.394;2023-03-19T15:50:53;17.70;91.50
28747;DHT22;15903;49.008;8.394;2023-03-19T15:53:22;17.80;91.40
28747;DHT22;15903;49.008;8.394;2023-03-19T15:55:50;17.80;91.50
28747;DHT22;15903;49.008;8.394;2023-03-19T15:58:21;17.70;91.50
28747;DHT22;15903;49.008;8.394;2023-03-19T16:00:47;17.70;91.20
28747;DHT22;15903;49.008;8.394;2023-03-19T16:03:18;17.60;90.80
28747;DHT22;15903;49.008;8.394;2023-03-19T16:05:44;17.50;91.00
28747;DHT22;15903;49.008;8.394;2023-03-19T16:08:20;17.40;90.90
28747;DHT22;15903;49.008;8.394;2023-03-19T16:10:46;17.40;91.10
28747;DHT22;15903;49.008;8.394;2023-03-19T16:13:28;17.30;91.60
28747;DHT22;15903;49.008;8.394;2023-03-19T16:18:29;17.10;93.00
28747;DHT22;15903;49.008;8.394;2023-03-19T16:23:31;16.80;93.40
28747;DHT22;15903;49.008;8.394;2023-03-19T16:26:03;16.80;93.50
28747;DHT22;15903;49.008;8.394;2023-03-19T16:28:30;16.70;93.30
28747;DHT22;15903;49.008;8.394;2023-03-19T16:30:55;16.70;93.20
28747;DHT22;15903;49.008;8.394;2023-03-19T16:33:21;16.60;93.10
28747;DHT22;15903;49.008;8.394;2023-03-19T16:35:46;16.50;93.30
28747;DHT22;15903;49.008;8.394;2023-03-19T16:38:25;16.50;93.70
28747;DHT22;15903;49.008;8.394;2023-03-19T16:43:32;16.50;93.90
28747;DHT22;15903;49.008;8.394;2023-03-19T16:46:06;16.40;93.70
28747;DHT22;15903;49.008;8.394;2023-03-19T16:48:35;16.40;93.70
28747;DHT22;15903;49.008;8.394;2023-03-19T16:51:00;16.40;93.40
28747;DHT22;15903;49.008;8.394;2023-03-19T16:53:28;16.30;93.60
28747;DHT22;15903;49.008;8.394;2023-03-19T16:55:56;16.30;93.60
28747;DHT22;15903;49.008;8.394;2023-03-19T16:58:31;16.30;93.70
28747;DHT22;15903;49.008;8.394;2023-03-19T17:00:59;16.20;93.80
28747;DHT22;15903;49.008;8.394;2023-03-19T17:03:25;16.20;93.90
28747;DHT22;15903;49.008;8.394;2023-03-19T17:05:51;16.10;94.60
28747;DHT22;15903;49.008;8.394;2023-03-19T17:08:16;16.00;95.50
28747;DHT22;15903;49.008;8.394;2023-03-19T17:10:49;16.00;96.90
28747;DHT22;15903;49.008;8.394;2023-03-19T17:13:18;16.00;96.60
28747;DHT22;15903;49.008;8.394;2023-03-19T17:15:46;15.90;96.90
28747;DHT22;15903;49.008;8.394;2023-03-19T17:18:17;16.00;97.00
28747;DHT22;15903;49.008;8.394;2023-03-19T17:23:47;15.80;97.50
28747;DHT22;15903;49.008;8.394;2023-03-19T17:26:18;15.80;97.40
28747;DHT22;15903;49.008;8.394;2023-03-19T17:28:45;15.70;97.80